Deprecated: wp_no_robots est obsolète depuis la version 5.7.0 ! Utilisez wp_robots_no_robots() à la place. in /home/flyandfubn/www/wp-includes/functions.php on line 4862

Mon compte.

Connexion

S’enregistrer

Un mot de passe sera envoyé vers votre adresse de messagerie.

Vos données personnelles seront utilisées pour vous accompagner au cours de votre visite du site web, gérer l’accès à votre compte, et pour d’autres raisons décrites dans notre politique de confidentialité.

METAR :

LFQA 142100Z AUTO VRB03KT 9999 FEW018 SCT054 OVC076 10/08 Q1009


vue en direct sur l'aérodrome
mentions légales politique de confidentialité
Cochet Concept
cx